createdAt,value
2023-03-29T00:00:25.587Z,27.58
2023-03-29T00:02:58.777Z,25.67
2023-03-29T00:05:26.409Z,26.57
2023-03-29T00:07:54.476Z,24.80
2023-03-29T00:10:27.315Z,24.52
2023-03-29T00:12:54.714Z,25.70
2023-03-29T00:15:21.898Z,25.20
2023-03-29T00:17:54.982Z,25.02
2023-03-29T00:20:22.975Z,26.85
2023-03-29T00:22:50.343Z,25.92
2023-03-29T00:25:17.748Z,25.52
2023-03-29T00:27:45.392Z,27.98
2023-03-29T00:30:13.719Z,30.98
2023-03-29T00:32:41.238Z,27.42
2023-03-29T00:35:09.144Z,27.88
2023-03-29T00:37:36.651Z,29.33
2023-03-29T00:40:10.764Z,29.40
2023-03-29T00:42:38.103Z,31.67
2023-03-29T00:45:23.483Z,29.27
2023-03-29T00:47:57.413Z,28.88
2023-03-29T00:50:33.213Z,27.27
2023-03-29T00:53:32.188Z,30.33
2023-03-29T00:56:14.127Z,31.13
2023-03-29T00:59:13.420Z,29.48
2023-03-29T01:02:03.363Z,29.30
2023-03-29T01:04:42.786Z,27.17
2023-03-29T01:07:30.857Z,22.77
2023-03-29T01:10:13.691Z,22.58
2023-03-29T01:12:53.780Z,25.23
2023-03-29T01:15:25.554Z,25.27
2023-03-29T01:17:55.696Z,21.23
2023-03-29T01:20:55.503Z,22.90
2023-03-29T01:23:43.624Z,22.90
2023-03-29T01:26:24.955Z,21.88
2023-03-29T01:29:07.146Z,22.80
2023-03-29T01:31:46.512Z,22.77
2023-03-29T01:34:31.821Z,21.30
2023-03-29T01:37:21.943Z,20.00
2023-03-29T01:39:49.160Z,18.40
2023-03-29T01:42:53.360Z,16.40
2023-03-29T01:45:51.937Z,14.80
2023-03-29T01:48:28.759Z,13.82
2023-03-29T01:51:07.774Z,13.38
2023-03-29T01:54:05.445Z,11.55
2023-03-29T01:56:36.928Z,11.98
2023-03-29T01:59:08.342Z,11.00
2023-03-29T02:01:43.892Z,10.95
2023-03-29T02:04:14.579Z,10.32
2023-03-29T02:06:42.885Z,9.85
2023-03-29T02:09:10.191Z,10.05
2023-03-29T02:11:38.207Z,10.52
2023-03-29T02:14:10.499Z,10.95
2023-03-29T02:16:38.963Z,10.45
2023-03-29T02:19:07.873Z,10.25
2023-03-29T02:22:01.525Z,10.45
2023-03-29T02:24:30.865Z,10.02
2023-03-29T02:26:59.214Z,10.55
2023-03-29T02:29:27.823Z,9.65
2023-03-29T02:32:08.425Z,11.27
2023-03-29T02:34:40.993Z,11.13
2023-03-29T02:37:15.763Z,11.30
2023-03-29T02:39:43.030Z,10.60
2023-03-29T02:42:10.491Z,11.18
2023-03-29T02:44:40.141Z,10.43
2023-03-29T02:47:23.258Z,11.18
2023-03-29T02:49:50.950Z,12.45
2023-03-29T02:52:22.805Z,12.82
2023-03-29T02:54:54.487Z,12.93
2023-03-29T02:57:28.710Z,13.52
2023-03-29T02:59:57.071Z,14.00
2023-03-29T03:02:27.927Z,14.43
2023-03-29T03:04:57.798Z,13.27
2023-03-29T03:07:25.128Z,13.70
2023-03-29T03:09:53.300Z,12.48
2023-03-29T03:12:21.558Z,10.95
2023-03-29T03:14:49.507Z,9.95
2023-03-29T03:17:18.849Z,9.57
2023-03-29T03:19:48.163Z,9.25
2023-03-29T03:22:15.409Z,8.40
2023-03-29T03:24:43.454Z,8.85
2023-03-29T03:27:12.009Z,8.65
2023-03-29T03:29:41.619Z,9.20
2023-03-29T03:32:08.915Z,8.40
2023-03-29T03:34:55.751Z,8.43
2023-03-29T03:37:25.743Z,9.10
2023-03-29T03:39:53.631Z,10.52
2023-03-29T03:42:21.623Z,10.52
2023-03-29T03:44:49.591Z,8.82
2023-03-29T03:47:39.605Z,8.80
2023-03-29T03:50:20.175Z,9.25
2023-03-29T03:52:48.017Z,9.32
2023-03-29T03:55:16.436Z,10.32
2023-03-29T03:58:04.504Z,9.43
2023-03-29T04:00:33.355Z,8.48
2023-03-29T04:03:18.806Z,8.50
2023-03-29T04:05:46.778Z,8.85
2023-03-29T04:08:15.950Z,8.27
2023-03-29T04:11:04.611Z,7.50
2023-03-29T04:13:37.818Z,7.15
2023-03-29T04:16:40.274Z,7.80
2023-03-29T04:19:36.506Z,7.00
2023-03-29T04:22:03.868Z,6.68
2023-03-29T04:24:31.725Z,6.68
2023-03-29T04:27:17.723Z,7.32
2023-03-29T04:29:45.210Z,6.30
2023-03-29T04:32:47.326Z,6.50
2023-03-29T04:35:14.729Z,7.07
2023-03-29T04:37:42.050Z,7.55
2023-03-29T04:40:14.528Z,8.10
2023-03-29T04:43:00.129Z,7.07
2023-03-29T04:45:27.830Z,7.05
2023-03-29T04:48:27.282Z,7.28
2023-03-29T04:50:55.143Z,7.65
2023-03-29T04:53:22.759Z,7.82
2023-03-29T04:55:50.885Z,7.53
2023-03-29T04:58:33.003Z,7.10
2023-03-29T05:01:02.032Z,7.25
2023-03-29T05:03:35.667Z,7.40
2023-03-29T05:06:35.410Z,7.55
2023-03-29T05:09:03.060Z,7.32
2023-03-29T05:11:39.011Z,7.63
2023-03-29T05:14:07.419Z,7.43
2023-03-29T05:16:35.657Z,7.20
2023-03-29T05:19:03.000Z,7.60
2023-03-29T05:21:33.749Z,7.30
2023-03-29T05:24:12.414Z,6.57
2023-03-29T05:26:40.973Z,7.07
2023-03-29T05:29:09.080Z,7.90
2023-03-29T05:31:39.565Z,6.57
2023-03-29T05:34:08.865Z,6.95
2023-03-29T05:36:42.889Z,7.03
2023-03-29T05:39:11.317Z,7.65
2023-03-29T05:41:39.845Z,7.28
2023-03-29T05:44:33.139Z,7.45
2023-03-29T05:47:10.239Z,7.18
2023-03-29T05:49:38.153Z,7.57
2023-03-29T05:52:13.141Z,7.60
2023-03-29T05:54:41.496Z,7.28
2023-03-29T05:57:12.061Z,7.60
2023-03-29T05:59:40.591Z,6.90
2023-03-29T06:02:10.794Z,8.60
2023-03-29T06:04:42.761Z,7.38
2023-03-29T06:07:25.571Z,7.53
2023-03-29T06:10:11.914Z,7.82
2023-03-29T06:12:47.098Z,8.70
2023-03-29T06:15:15.982Z,8.20
2023-03-29T06:18:06.242Z,7.50
2023-03-29T06:20:35.882Z,7.75
2023-03-29T06:23:09.990Z,7.22
2023-03-29T06:25:38.035Z,7.00
2023-03-29T06:28:06.237Z,7.47
2023-03-29T06:30:34.935Z,7.00
2023-03-29T06:33:03.012Z,8.23
2023-03-29T06:35:56.734Z,8.32
2023-03-29T06:38:28.850Z,8.60
2023-03-29T06:41:06.612Z,8.18
2023-03-29T06:43:58.788Z,7.63
2023-03-29T06:46:33.157Z,7.90
2023-03-29T06:49:07.100Z,8.00
2023-03-29T06:52:00.222Z,8.47
2023-03-29T06:54:33.521Z,8.95
2023-03-29T06:57:15.154Z,9.25
2023-03-29T06:59:43.044Z,7.90
2023-03-29T07:02:31.856Z,8.73
2023-03-29T07:05:12.223Z,8.55
2023-03-29T07:08:00.200Z,7.55
2023-03-29T07:10:40.240Z,7.90
2023-03-29T07:13:27.801Z,7.50
2023-03-29T07:15:58.526Z,7.95
2023-03-29T07:18:58.895Z,7.90
2023-03-29T07:21:49.453Z,8.05
2023-03-29T07:24:21.469Z,7.43
2023-03-29T07:27:03.257Z,6.55
2023-03-29T07:29:32.393Z,6.97
2023-03-29T07:32:00.314Z,6.07
2023-03-29T07:34:44.451Z,6.32
2023-03-29T07:37:24.922Z,6.80
2023-03-29T07:39:54.043Z,6.65
2023-03-29T07:46:03.946Z,5.07
2023-03-29T07:48:53.762Z,6.53
2023-03-29T07:51:22.437Z,5.75
2023-03-29T07:53:58.500Z,5.50
2023-03-29T07:56:48.937Z,4.72
2023-03-29T07:59:36.935Z,5.25
2023-03-29T08:02:23.376Z,5.13
2023-03-29T08:04:54.321Z,4.70
2023-03-29T08:07:32.812Z,5.20
2023-03-29T08:10:20.128Z,4.85
2023-03-29T08:13:07.779Z,4.90
2023-03-29T08:15:50.255Z,4.47
2023-03-29T08:18:37.844Z,5.10
2023-03-29T08:21:06.233Z,4.80
2023-03-29T08:23:33.616Z,5.20
2023-03-29T08:26:20.845Z,5.45
2023-03-29T08:28:51.327Z,5.03
2023-03-29T08:31:21.330Z,6.50
2023-03-29T08:33:48.808Z,11.73
2023-03-29T08:36:34.872Z,21.30
2023-03-29T08:39:11.120Z,12.32
2023-03-29T08:41:57.907Z,7.72
2023-03-29T08:44:55.113Z,5.97
2023-03-29T08:47:53.486Z,7.43
2023-03-29T08:50:31.377Z,5.57
2023-03-29T08:53:02.545Z,7.38
2023-03-29T08:55:58.303Z,7.28
2023-03-29T08:58:48.153Z,8.10
2023-03-29T09:01:15.560Z,9.27
2023-03-29T09:04:20.878Z,11.82
2023-03-29T09:07:03.919Z,6.65
2023-03-29T09:09:39.094Z,6.32
2023-03-29T09:12:41.169Z,9.90
2023-03-29T09:15:30.296Z,8.38
2023-03-29T09:18:34.945Z,6.50
2023-03-29T09:21:26.366Z,4.00
2023-03-29T09:24:18.956Z,5.80
2023-03-29T09:27:27.066Z,6.55
2023-03-29T09:30:19.020Z,5.32
2023-03-29T09:33:09.876Z,8.82
2023-03-29T09:36:18.100Z,4.30
2023-03-29T09:38:49.763Z,3.05
2023-03-29T09:41:31.999Z,2.47
2023-03-29T09:44:20.584Z,2.22
2023-03-29T09:47:35.295Z,2.75
2023-03-29T09:50:31.353Z,2.50
2023-03-29T09:53:01.778Z,2.67
2023-03-29T09:58:34.318Z,2.38
2023-03-29T10:01:06.249Z,2.80
2023-03-29T10:03:39.285Z,3.30
2023-03-29T10:06:45.310Z,3.55
2023-03-29T10:09:17.804Z,2.78
2023-03-29T10:11:49.367Z,2.30
2023-03-29T10:14:41.898Z,2.65
2023-03-29T10:17:25.078Z,2.20
2023-03-29T10:22:38.077Z,2.42
2023-03-29T10:25:13.942Z,2.60
2023-03-29T10:27:42.517Z,3.38
2023-03-29T10:30:13.349Z,2.47
2023-03-29T10:32:40.682Z,2.67
2023-03-29T10:35:23.706Z,4.10
2023-03-29T10:37:53.055Z,6.13
2023-03-29T10:40:33.048Z,3.00
2023-03-29T10:43:18.027Z,3.35
2023-03-29T10:45:57.254Z,3.92
2023-03-29T10:48:29.083Z,4.38
2023-03-29T10:51:00.134Z,3.28
2023-03-29T10:53:32.914Z,2.40
2023-03-29T10:56:18.607Z,2.67
2023-03-29T10:59:02.145Z,2.53
2023-03-29T11:01:43.853Z,2.33
2023-03-29T11:05:20.912Z,2.30
2023-03-29T11:08:03.090Z,2.40
2023-03-29T11:10:58.878Z,2.28
2023-03-29T11:13:47.780Z,2.58
2023-03-29T11:16:35.932Z,2.88
2023-03-29T11:19:07.189Z,2.42
2023-03-29T11:22:39.959Z,2.35
2023-03-29T11:25:27.223Z,2.30
2023-03-29T11:28:42.627Z,2.30
2023-03-29T11:32:05.411Z,2.63
2023-03-29T11:35:23.599Z,2.42
2023-03-29T11:38:14.136Z,3.60
2023-03-29T11:40:54.098Z,3.10
2023-03-29T11:43:31.169Z,2.70
2023-03-29T11:46:10.146Z,2.83
2023-03-29T11:48:51.517Z,2.70
2023-03-29T11:51:49.023Z,2.72
2023-03-29T11:54:52.469Z,2.65
2023-03-29T11:57:41.094Z,2.85
2023-03-29T12:00:33.051Z,3.28
2023-03-29T12:03:21.460Z,2.60
2023-03-29T12:06:17.068Z,2.30
2023-03-29T12:09:24.270Z,2.47
2023-03-29T12:12:09.523Z,2.40
2023-03-29T12:14:47.420Z,2.30
2023-03-29T12:17:20.010Z,2.50
2023-03-29T12:20:27.749Z,2.10
2023-03-29T12:22:57.630Z,2.55
2023-03-29T12:25:31.129Z,2.10
2023-03-29T12:28:07.933Z,2.20
2023-03-29T12:31:23.900Z,2.17
2023-03-29T12:34:41.325Z,2.50
2023-03-29T12:37:40.644Z,2.30
2023-03-29T12:40:28.104Z,2.17
2023-03-29T12:43:31.967Z,2.45
2023-03-29T12:46:26.994Z,2.10
2023-03-29T12:49:05.922Z,1.92
2023-03-29T12:51:33.864Z,2.25
2023-03-29T12:54:13.541Z,2.30
2023-03-29T12:57:02.959Z,2.00
2023-03-29T12:59:45.265Z,2.00
2023-03-29T13:02:15.601Z,2.60
2023-03-29T13:04:59.211Z,2.45
2023-03-29T13:07:32.947Z,2.60
2023-03-29T13:10:03.661Z,2.37
2023-03-29T13:12:37.538Z,2.22
2023-03-29T13:15:07.988Z,1.95
2023-03-29T13:17:54.229Z,2.28
2023-03-29T13:20:46.755Z,2.10
2023-03-29T13:23:51.507Z,2.85
2023-03-29T13:26:46.073Z,2.45
2023-03-29T13:30:00.907Z,3.95
2023-03-29T13:32:32.825Z,2.28
2023-03-29T13:35:24.935Z,2.00
2023-03-29T13:38:09.086Z,2.00
2023-03-29T13:41:07.432Z,2.00
2023-03-29T13:43:35.923Z,1.73
2023-03-29T13:46:07.005Z,1.85
2023-03-29T13:48:37.688Z,2.17
2023-03-29T13:51:27.188Z,2.30
2023-03-29T13:54:07.466Z,2.25
2023-03-29T13:57:16.556Z,2.20
2023-03-29T14:00:02.124Z,1.95
2023-03-29T14:02:48.794Z,4.30
2023-03-29T14:05:20.003Z,2.78
2023-03-29T14:07:50.930Z,3.22
2023-03-29T14:10:33.226Z,2.85
2023-03-29T14:13:04.065Z,2.22
2023-03-29T14:15:51.007Z,2.20
2023-03-29T14:18:22.036Z,2.45
2023-03-29T14:20:53.932Z,2.17
2023-03-29T14:23:26.297Z,2.92
2023-03-29T14:25:53.528Z,2.45
2023-03-29T14:28:28.505Z,2.40
2023-03-29T14:30:56.738Z,2.40
2023-03-29T14:33:33.475Z,2.33
2023-03-29T14:36:07.868Z,2.65
2023-03-29T14:38:37.146Z,3.00
2023-03-29T14:41:08.041Z,5.40
2023-03-29T14:43:36.022Z,3.22
2023-03-29T14:46:07.939Z,2.67
2023-03-29T14:48:37.226Z,2.45
2023-03-29T14:51:05.340Z,3.67
2023-03-29T14:53:42.896Z,3.20
2023-03-29T14:56:15.803Z,2.65
2023-03-29T14:58:46.615Z,3.10
2023-03-29T15:01:19.522Z,2.95
2023-03-29T15:03:56.715Z,2.60
2023-03-29T15:06:24.867Z,2.67
2023-03-29T15:09:04.349Z,2.40
2023-03-29T15:11:34.328Z,2.30
2023-03-29T15:14:09.070Z,2.30
2023-03-29T15:16:43.917Z,2.38
2023-03-29T15:19:20.124Z,2.22
2023-03-29T15:21:50.639Z,1.90
2023-03-29T15:24:31.821Z,2.13
2023-03-29T15:27:19.731Z,2.60
2023-03-29T15:29:48.518Z,2.05
2023-03-29T15:32:23.966Z,2.30
2023-03-29T15:35:02.158Z,3.20
2023-03-29T15:37:29.917Z,3.58
2023-03-29T15:39:58.322Z,3.10
2023-03-29T15:42:25.705Z,3.30
2023-03-29T15:44:56.295Z,2.58
2023-03-29T15:47:24.089Z,2.90
2023-03-29T15:49:52.234Z,2.95
2023-03-29T15:52:19.525Z,2.80
2023-03-29T15:54:46.938Z,2.50
2023-03-29T15:57:15.841Z,2.60
2023-03-29T15:59:43.521Z,2.85
2023-03-29T16:02:15.962Z,2.85
2023-03-29T16:04:43.630Z,2.70
2023-03-29T16:07:16.421Z,2.85
2023-03-29T16:09:44.498Z,2.70
2023-03-29T16:12:11.755Z,3.30
2023-03-29T16:14:39.277Z,2.80
2023-03-29T16:17:07.008Z,3.30
2023-03-29T16:19:35.033Z,3.35
2023-03-29T16:22:05.176Z,4.20
2023-03-29T16:24:33.697Z,3.50
2023-03-29T16:27:01.586Z,3.20
2023-03-29T16:29:28.982Z,3.28
2023-03-29T16:31:57.693Z,3.28
2023-03-29T16:34:26.206Z,3.50
2023-03-29T16:36:53.969Z,3.67
2023-03-29T16:39:21.596Z,3.38
2023-03-29T16:41:50.335Z,2.95
2023-03-29T16:44:23.184Z,3.90
2023-03-29T16:46:58.113Z,2.90
2023-03-29T16:49:26.009Z,4.60
2023-03-29T16:51:53.636Z,4.45
2023-03-29T16:54:21.505Z,4.07
2023-03-29T16:56:49.168Z,5.25
2023-03-29T16:59:16.684Z,5.35
2023-03-29T17:02:09.043Z,5.55
2023-03-29T17:04:37.162Z,5.80
2023-03-29T17:07:04.869Z,5.15
2023-03-29T17:09:33.500Z,5.40
2023-03-29T17:12:02.127Z,5.05
2023-03-29T17:14:30.923Z,5.00
2023-03-29T17:16:58.670Z,4.22
2023-03-29T17:19:26.051Z,4.60
2023-03-29T17:21:55.002Z,5.00
2023-03-29T17:24:23.774Z,4.13
2023-03-29T17:26:51.064Z,4.18
2023-03-29T17:29:21.643Z,4.10
2023-03-29T17:31:51.321Z,4.57
2023-03-29T17:34:28.893Z,4.05
2023-03-29T17:36:56.975Z,4.82
2023-03-29T17:39:27.192Z,6.10
2023-03-29T17:41:54.857Z,5.25
2023-03-29T17:44:25.097Z,4.50
2023-03-29T17:47:09.826Z,4.38
2023-03-29T17:49:37.850Z,4.57
2023-03-29T17:52:06.310Z,5.80
2023-03-29T17:54:39.896Z,4.50
2023-03-29T17:57:10.008Z,5.25
2023-03-29T17:59:38.793Z,5.32
2023-03-29T18:02:06.196Z,5.30
2023-03-29T18:04:34.098Z,5.95
2023-03-29T18:07:01.718Z,6.07
2023-03-29T18:09:30.995Z,6.28
2023-03-29T18:11:58.872Z,6.25
2023-03-29T18:14:27.187Z,7.45
2023-03-29T18:16:54.959Z,6.65
2023-03-29T18:19:28.960Z,6.90
2023-03-29T18:21:56.618Z,5.38
2023-03-29T18:24:27.762Z,6.28
2023-03-29T18:26:56.107Z,6.10
2023-03-29T18:29:30.947Z,6.18
2023-03-29T18:32:03.002Z,7.50
2023-03-29T18:34:34.367Z,7.45
2023-03-29T18:37:15.128Z,8.82
2023-03-29T18:39:49.102Z,8.00
2023-03-29T18:42:16.881Z,8.02
2023-03-29T18:44:44.656Z,8.45
2023-03-29T18:47:12.081Z,8.38
2023-03-29T18:49:40.727Z,9.13
2023-03-29T18:52:09.070Z,9.30
2023-03-29T18:54:36.639Z,9.20
2023-03-29T18:57:04.889Z,9.60
2023-03-29T18:59:32.553Z,9.35
2023-03-29T19:02:00.176Z,8.65
2023-03-29T19:04:28.892Z,8.82
2023-03-29T19:06:56.576Z,8.30
2023-03-29T19:09:23.956Z,9.63
2023-03-29T19:11:51.295Z,16.50
2023-03-29T19:14:26.402Z,13.23
2023-03-29T19:17:01.023Z,15.52
2023-03-29T19:21:59.039Z,15.02
2023-03-29T19:24:28.039Z,17.17
2023-03-29T19:26:59.765Z,11.88
2023-03-29T19:29:34.561Z,12.57
2023-03-29T19:32:24.654Z,12.13
2023-03-29T19:34:53.029Z,13.90
2023-03-29T19:37:20.811Z,11.45
2023-03-29T19:39:48.033Z,11.15
2023-03-29T19:42:18.325Z,10.75
2023-03-29T19:44:51.313Z,12.88
2023-03-29T19:47:27.144Z,12.55
2023-03-29T19:49:54.576Z,11.55
2023-03-29T19:52:24.020Z,12.13
2023-03-29T19:54:55.829Z,11.27
2023-03-29T19:57:23.960Z,12.48
2023-03-29T19:59:53.918Z,12.60
2023-03-29T20:02:21.442Z,12.63
2023-03-29T20:04:49.648Z,12.10
2023-03-29T20:07:18.036Z,17.70
2023-03-29T20:09:51.681Z,13.68
2023-03-29T20:12:25.970Z,14.20
2023-03-29T20:14:53.172Z,14.65
2023-03-29T20:17:21.077Z,14.05
2023-03-29T20:19:49.198Z,13.10
2023-03-29T20:22:16.793Z,13.38
2023-03-29T20:24:44.119Z,14.02
2023-03-29T20:27:11.747Z,15.27
2023-03-29T20:29:39.011Z,14.48
2023-03-29T20:32:06.668Z,14.35
2023-03-29T20:34:34.945Z,15.93
2023-03-29T20:37:02.633Z,16.73
2023-03-29T20:39:32.458Z,15.68
2023-03-29T20:42:01.038Z,15.73
2023-03-29T20:44:28.896Z,17.30
2023-03-29T20:47:06.786Z,16.10
2023-03-29T20:49:39.768Z,16.73
2023-03-29T20:52:12.357Z,17.02
2023-03-29T20:54:59.159Z,14.77
2023-03-29T20:57:29.242Z,15.55
2023-03-29T20:59:59.355Z,13.85
2023-03-29T21:02:28.000Z,15.02
2023-03-29T21:05:00.272Z,14.25
2023-03-29T21:07:28.706Z,15.20
2023-03-29T21:09:56.010Z,13.60
2023-03-29T21:12:23.630Z,13.75
2023-03-29T21:14:54.430Z,13.00
2023-03-29T21:17:56.491Z,12.68
2023-03-29T21:20:24.957Z,13.18
2023-03-29T21:22:52.201Z,13.38
2023-03-29T21:25:19.673Z,13.35
2023-03-29T21:27:46.998Z,12.43
2023-03-29T21:30:14.476Z,11.75
2023-03-29T21:32:42.853Z,11.70
2023-03-29T21:35:10.924Z,11.27
2023-03-29T21:37:38.197Z,11.25
2023-03-29T21:40:06.973Z,11.35
2023-03-29T21:42:34.758Z,11.10
2023-03-29T21:45:03.081Z,10.60
2023-03-29T21:47:31.114Z,11.32
2023-03-29T21:49:58.722Z,11.93
2023-03-29T21:52:26.067Z,11.45
2023-03-29T21:54:53.423Z,11.45
2023-03-29T21:57:20.716Z,10.23
2023-03-29T21:59:47.886Z,10.02
2023-03-29T22:02:15.162Z,9.63
2023-03-29T22:04:42.448Z,9.02
2023-03-29T22:07:10.694Z,9.65
2023-03-29T22:09:41.234Z,8.85
2023-03-29T22:12:09.954Z,9.38
2023-03-29T22:14:37.364Z,8.27
2023-03-29T22:17:09.376Z,8.27
2023-03-29T22:19:39.713Z,8.13
2023-03-29T22:22:13.579Z,8.38
2023-03-29T22:24:42.150Z,7.88
2023-03-29T22:27:10.608Z,8.10
2023-03-29T22:29:37.937Z,8.00
2023-03-29T22:32:05.858Z,8.07
2023-03-29T22:34:33.880Z,7.35
2023-03-29T22:37:03.292Z,7.70
2023-03-29T22:39:31.417Z,7.38
2023-03-29T22:41:59.220Z,6.60
2023-03-29T22:44:27.046Z,7.40
2023-03-29T22:46:57.116Z,6.57
2023-03-29T22:49:24.572Z,7.00
2023-03-29T22:51:51.801Z,6.95
2023-03-29T22:54:20.046Z,7.25
2023-03-29T22:56:47.276Z,7.68
2023-03-29T22:59:15.773Z,8.00
2023-03-29T23:01:43.148Z,8.05
2023-03-29T23:04:14.857Z,9.40
2023-03-29T23:06:42.319Z,11.73
2023-03-29T23:09:10.026Z,12.88
2023-03-29T23:11:37.832Z,12.98
2023-03-29T23:14:05.198Z,15.02
2023-03-29T23:16:32.684Z,14.20
2023-03-29T23:19:00.001Z,11.77
2023-03-29T23:21:28.000Z,9.68
2023-03-29T23:23:55.403Z,10.00
2023-03-29T23:26:23.220Z,7.00
2023-03-29T23:28:51.583Z,7.18
2023-03-29T23:31:19.692Z,5.80
2023-03-29T23:33:47.914Z,5.70
2023-03-29T23:36:17.177Z,5.32
2023-03-29T23:38:45.922Z,5.90
2023-03-29T23:41:13.332Z,5.40
2023-03-29T23:43:42.918Z,4.78
2023-03-29T23:46:15.560Z,4.68
2023-03-29T23:48:47.127Z,4.43
2023-03-29T23:51:14.831Z,4.63
2023-03-29T23:53:42.142Z,4.45
2023-03-29T23:56:09.747Z,4.93
2023-03-29T23:58:37.938Z,4.60
